Time;durP1;ratioP1;P1;durP2;ratioP2;P2;SDS_P1;SDS_P2;PMS_P1;PMS_P2;Temp;Humidity;BMP_temperature;BMP_pressure;BME280_temperature;BME280_humidity;BME280_pressure;Samples;Min_cycle;Max_cycle;Signal;HPM_P1;HPM_P2
2021/01/25 00:01:59;;;;;;;9.47;7.50;;;2.00;90.10;;;1.43;83.68;96493.44;5067411;28;20643;-70
2021/01/25 00:04:27;;;;;;;9.23;7.13;;;2.00;90.50;;;1.43;83.26;96489.13;5070123;28;21234;-70
2021/01/25 00:06:55;;;;;;;10.60;7.87;;;2.00;90.20;;;1.44;83.85;96480.53;5072103;28;20647;-70
2021/01/25 00:09:23;;;;;;;9.70;7.20;;;2.00;90.30;;;1.47;84.25;96482.06;5057013;28;20636;-70
2021/01/25 00:11:50;;;;;;;9.80;7.47;;;2.00;90.40;;;1.52;83.14;96470.63;5056850;28;20661;-70
2021/01/25 00:14:18;;;;;;;11.90;6.73;;;2.10;90.20;;;1.51;83.48;96471.53;5068017;28;20632;-70
2021/01/25 00:16:45;;;;;;;9.10;7.00;;;2.10;90.20;;;1.52;83.56;96460.34;5058227;28;20631;-70
2021/01/25 00:19:13;;;;;;;17.67;9.63;;;2.10;90.20;;;1.52;83.47;96462.91;5058121;28;20624;-70
2021/01/25 00:21:42;;;;;;;16.60;10.00;;;2.00;90.10;;;1.50;83.49;96461.34;5053278;28;20636;-70
2021/01/25 00:24:12;;;;;;;18.07;10.33;;;2.00;90.30;;;1.54;83.84;96450.00;5063497;28;21257;-70
2021/01/25 00:26:40;;;;;;;13.27;8.47;;;2.10;90.40;;;1.51;83.72;96461.25;5059424;28;20755;-70
2021/01/25 00:29:08;;;;;;;17.87;8.70;;;2.00;90.50;;;1.50;83.88;96454.50;5054624;28;20631;-70
2021/01/25 00:31:35;;;;;;;14.30;8.80;;;2.10;90.60;;;1.53;83.72;96459.44;5058377;28;20666;-70
2021/01/25 00:34:03;;;;;;;11.43;7.50;;;2.10;90.70;;;1.54;83.68;96461.06;5060652;28;20652;-70
2021/01/25 00:36:30;;;;;;;14.20;7.87;;;2.10;90.60;;;1.57;83.64;96450.63;5051545;28;20620;-70
2021/01/25 00:38:58;;;;;;;13.70;9.57;;;2.10;90.60;;;1.59;83.54;96455.66;5058598;28;21225;-70
2021/01/25 00:41:26;;;;;;;11.63;8.77;;;2.10;90.40;;;1.57;83.97;96450.63;5056013;28;21336;-70
2021/01/25 00:43:54;;;;;;;12.00;7.47;;;2.10;90.60;;;1.59;84.00;96448.78;5055048;28;20662;-70
2021/01/25 00:46:22;;;;;;;13.00;8.80;;;2.10;90.50;;;1.61;83.59;96452.09;5060721;28;21221;-70
2021/01/25 00:48:50;;;;;;;13.70;8.37;;;2.10;90.50;;;1.59;84.63;96451.34;5062275;28;20637;-70
2021/01/25 00:51:18;;;;;;;12.50;8.23;;;2.10;90.80;;;1.61;84.35;96436.69;5068385;28;20636;-70
2021/01/25 00:53:46;;;;;;;10.53;7.83;;;2.10;90.70;;;1.67;83.50;96431.19;5063063;28;20775;-70
2021/01/25 00:56:13;;;;;;;10.93;6.97;;;2.10;90.50;;;1.62;83.91;96428.03;5063549;28;20658;-70
2021/01/25 00:58:42;;;;;;;13.80;7.33;;;2.10;90.50;;;1.64;83.64;96421.09;5068028;28;20663;-70
2021/01/25 01:01:10;;;;;;;14.37;7.83;;;2.10;90.50;;;1.67;84.07;96414.94;5067859;28;20688;-70
2021/01/25 01:03:38;;;;;;;9.97;7.87;;;2.10;90.70;;;1.67;83.94;96414.94;5060444;28;20662;-70
2021/01/25 01:06:06;;;;;;;13.50;7.33;;;2.20;90.60;;;1.63;83.95;96408.34;5057598;28;21279;-70
2021/01/25 01:08:34;;;;;;;10.57;6.53;;;2.10;90.80;;;1.63;84.44;96406.59;5055262;28;20742;-70
2021/01/25 01:11:01;;;;;;;8.60;6.43;;;2.10;90.80;;;1.57;84.30;96408.72;5058932;28;20635;-70
2021/01/25 01:13:29;;;;;;;6.83;6.00;;;2.10;90.80;;;1.58;84.14;96406.06;5062233;28;20726;-70
2021/01/25 01:15:57;;;;;;;8.97;6.40;;;2.10;91.00;;;1.59;84.19;96406.88;5052599;28;20671;-70
2021/01/25 01:18:25;;;;;;;8.20;6.27;;;2.20;91.00;;;1.60;84.17;96409.34;5059353;28;20636;-70
2021/01/25 01:20:53;;;;;;;8.00;5.97;;;2.10;90.80;;;1.58;84.26;96421.47;5060201;28;20646;-70
2021/01/25 01:23:20;;;;;;;9.83;6.40;;;2.10;90.80;;;1.58;84.05;96412.91;5064941;28;20693;-70
2021/01/25 01:25:48;;;;;;;8.73;6.10;;;2.20;90.80;;;1.61;84.34;96420.44;5050741;28;20663;-70
2021/01/25 01:28:15;;;;;;;8.53;6.10;;;2.20;90.80;;;1.64;84.54;96417.69;5060324;28;20695;-70
2021/01/25 01:30:43;;;;;;;7.47;5.60;;;2.20;90.90;;;1.66;84.65;96418.44;5064681;28;20747;-70
2021/01/25 01:33:11;;;;;;;10.80;6.20;;;2.20;90.90;;;1.68;84.02;96416.59;5062792;28;21043;-70
2021/01/25 01:35:39;;;;;;;10.10;6.53;;;2.20;90.60;;;1.69;84.54;96418.25;5063652;28;20631;-70
2021/01/25 01:38:06;;;;;;;10.93;6.20;;;2.20;90.80;;;1.73;84.09;96406.84;5060759;28;20702;-70
2021/01/25 01:40:34;;;;;;;9.27;6.23;;;2.30;90.70;;;1.73;84.17;96415.41;5062194;28;21205;-70
2021/01/25 01:43:02;;;;;;;7.93;5.93;;;2.30;90.70;;;1.77;83.70;96406.56;5061144;28;21004;-70
2021/01/25 01:45:30;;;;;;;11.57;7.13;;;2.30;90.60;;;1.76;83.89;96410.09;5061896;28;20659;-70
2021/01/25 01:48:00;;;;;;;8.67;6.17;;;2.30;90.50;;;1.77;83.80;96401.44;5070036;28;20631;-70
2021/01/25 01:50:29;;;;;;;8.83;6.30;;;2.30;90.60;;;1.75;83.98;96405.84;5072456;28;20718;-70
2021/01/25 01:52:56;;;;;;;10.47;6.43;;;2.30;90.60;;;1.75;83.70;96398.16;5067214;28;20670;-70
2021/01/25 01:55:26;;;;;;;11.43;6.67;;;2.30;90.60;;;1.78;83.69;96402.28;5060137;28;20667;-70
2021/01/25 01:57:57;;;;;;;7.50;6.00;;;2.30;90.50;;;1.80;83.79;96400.44;5063192;28;21041;-70
2021/01/25 02:00:25;;;;;;;11.33;6.87;;;2.30;90.40;;;1.80;83.85;96396.09;5066917;28;20634;-70
2021/01/25 02:02:52;;;;;;;8.90;7.13;;;2.30;90.40;;;1.77;83.14;96396.28;5068685;28;20701;-70
2021/01/25 02:05:21;;;;;;;7.80;5.63;;;2.30;90.40;;;1.76;83.87;96386.97;5064885;28;20659;-70
2021/01/25 02:07:51;;;;;;;13.20;7.30;;;2.30;90.40;;;1.74;83.38;96388.78;5071623;28;21218;-70
2021/01/25 02:10:21;;;;;;;9.53;5.90;;;2.30;90.10;;;1.73;83.20;96378.59;5064120;28;21010;-70
2021/01/25 02:12:51;;;;;;;8.90;7.13;;;2.30;90.40;;;1.71;83.34;96375.31;5067997;28;20631;-70
2021/01/25 02:15:19;;;;;;;9.80;6.27;;;2.30;90.60;;;1.69;82.99;96375.41;5066046;28;20632;-70
2021/01/25 02:17:49;;;;;;;8.43;5.63;;;2.30;90.20;;;1.69;83.34;96377.16;5063588;28;20652;-70
2021/01/25 02:20:27;;;;;;;9.30;5.77;;;2.30;90.20;;;1.67;83.67;96374.69;5057387;28;21035;-70
2021/01/25 02:23:19;;;;;;;8.77;6.10;;;2.20;90.10;;;1.67;83.61;96374.69;5067330;28;20670;-70
2021/01/25 02:25:56;;;;;;;7.07;5.70;;;2.20;90.20;;;1.62;83.25;96375.88;5065133;28;20759;-70
2021/01/25 02:28:24;;;;;;;10.27;6.20;;;2.20;90.10;;;1.59;82.75;96369.16;5067431;28;20727;-70
2021/01/25 02:30:53;;;;;;;8.20;5.67;;;2.10;90.00;;;1.56;83.33;96371.09;5056580;28;20697;-70
2021/01/25 02:33:25;;;;;;;8.23;6.10;;;2.10;90.00;;;1.53;83.00;96373.84;5061211;28;20635;-70
2021/01/25 02:35:54;;;;;;;9.80;6.00;;;2.10;90.00;;;1.54;83.40;96378.09;5055180;28;20684;-70
2021/01/25 02:38:24;;;;;;;8.40;5.30;;;2.10;90.00;;;1.56;83.41;96364.22;5064777;28;20772;-70
2021/01/25 02:40:52;;;;;;;8.55;7.20;;;2.10;89.90;;;1.63;82.89;96372.38;5052217;28;20748;-70
2021/01/25 02:43:21;;;;;;;8.63;6.60;;;2.20;90.10;;;1.65;83.38;96375.69;5056325;28;20493;-70
2021/01/25 02:45:51;;;;;;;8.90;6.60;;;2.10;90.10;;;1.66;83.20;96364.50;5056441;28;20762;-70
2021/01/25 02:48:19;;;;;;;8.20;5.50;;;2.20;90.10;;;1.63;83.14;96368.06;5061214;28;20629;-70
2021/01/25 02:50:50;;;;;;;8.50;6.03;;;2.20;90.10;;;1.59;82.63;96361.47;5065586;28;20636;-70
2021/01/25 02:53:18;;;;;;;9.20;6.10;;;2.10;90.00;;;1.58;82.81;96369.25;5054373;28;20616;-70
2021/01/25 02:55:47;;;;;;;11.83;6.17;;;2.10;89.80;;;1.53;82.80;96369.56;5061833;28;20643;-70
2021/01/25 02:58:15;;;;;;;8.07;5.97;;;2.10;89.60;;;1.52;82.70;96370.47;5071099;28;20967;-70
2021/01/25 03:00:43;;;;;;;7.70;5.63;;;2.10;89.70;;;1.52;83.02;96362.78;5065926;28;20686;-70
2021/01/25 03:03:11;;;;;;;9.10;5.90;;;2.10;89.90;;;1.56;82.98;96365.97;5070553;28;20639;-70
2021/01/25 03:05:39;;;;;;;6.73;5.53;;;2.10;90.10;;;1.57;82.80;96376.16;5062934;28;20664;-70
2021/01/25 03:08:07;;;;;;;7.53;5.93;;;2.10;90.00;;;1.59;83.03;96370.91;5063835;28;20705;-70
2021/01/25 03:10:35;;;;;;;8.00;5.70;;;2.10;90.10;;;1.60;83.47;96373.38;5066095;28;20737;-70
2021/01/25 03:13:03;;;;;;;10.40;6.67;;;2.20;90.10;;;1.62;83.55;96368.16;5054070;28;20631;-70
2021/01/25 03:15:36;;;;;;;9.83;6.70;;;2.20;90.20;;;1.64;83.53;96376.59;5065381;28;20682;-70
2021/01/25 03:18:04;;;;;;;13.53;6.00;;;2.20;90.40;;;1.65;84.10;96371.34;5070821;28;20663;-70
2021/01/25 03:20:33;;;;;;;11.30;5.93;;;2.20;90.50;;;1.70;83.52;96379.63;5056869;28;20685;-70
2021/01/25 03:23:00;;;;;;;9.73;6.07;;;2.20;90.40;;;1.71;83.84;96377.88;5053350;28;20702;-70
2021/01/25 03:25:28;;;;;;;6.70;5.13;;;2.20;90.50;;;1.73;84.12;96379.44;5066625;28;20737;-70
2021/01/25 03:27:55;;;;;;;6.50;5.13;;;2.30;90.50;;;1.77;84.25;96385.22;5056392;28;20759;-70
2021/01/25 03:30:23;;;;;;;8.40;5.10;;;2.30;90.70;;;1.77;83.05;96382.63;5058892;28;20661;-70
2021/01/25 03:32:51;;;;;;;5.80;5.20;;;2.30;90.20;;;1.76;83.46;96384.41;5068073;28;21198;-70
2021/01/25 03:35:19;;;;;;;6.90;5.60;;;2.30;90.20;;;1.79;83.28;96393.63;5064281;28;20641;-70
2021/01/25 03:37:47;;;;;;;8.90;5.53;;;2.30;90.10;;;1.80;83.08;96396.09;5071528;28;20757;-70
2021/01/25 03:40:15;;;;;;;7.70;5.13;;;2.40;90.20;;;1.82;83.15;96401.16;5062387;28;20726;-70
2021/01/25 03:42:42;;;;;;;7.97;5.80;;;2.40;90.10;;;1.82;82.70;96404.56;5070233;28;20734;-70
2021/01/25 03:45:15;;;;;;;11.30;7.10;;;2.40;90.10;;;1.84;83.18;96412.19;5066490;28;20805;-70
2021/01/25 03:47:42;;;;;;;8.10;5.77;;;2.40;90.10;;;1.87;83.40;96406.84;5070841;28;20658;-70
2021/01/25 03:50:12;;;;;;;9.07;5.40;;;2.40;90.20;;;1.88;83.44;96409.34;5069641;28;20631;-70
2021/01/25 03:52:40;;;;;;;8.47;5.63;;;2.40;90.10;;;1.88;83.16;96412.72;5069752;28;20975;-70
2021/01/25 03:55:10;;;;;;;6.07;5.47;;;2.40;90.00;;;1.90;83.22;96417.75;5071213;28;21238;-70
2021/01/25 03:57:38;;;;;;;9.73;5.60;;;2.40;90.10;;;1.88;82.65;96420.44;5058588;28;20619;-70
2021/01/25 04:00:08;;;;;;;6.53;5.50;;;2.40;89.90;;;1.87;83.53;96413.63;5061187;28;20620;-70
2021/01/25 04:02:36;;;;;;;9.67;5.00;;;2.40;90.00;;;1.88;83.57;96435.03;5060708;28;20635;-70
2021/01/25 04:05:05;;;;;;;15.30;6.33;;;2.40;90.50;;;1.88;84.40;96433.28;5058862;28;20988;-70
2021/01/25 04:07:33;;;;;;;9.20;6.27;;;2.40;90.60;;;1.91;84.31;96429.69;5067803;28;20689;-70
2021/01/25 04:10:00;;;;;;;8.70;5.33;;;2.50;90.90;;;1.92;84.13;96433.91;5071016;28;20635;-70
2021/01/25 04:12:29;;;;;;;8.43;6.40;;;2.40;90.80;;;1.91;84.43;96437.41;5054153;28;21036;-70
2021/01/25 04:14:57;;;;;;;8.17;6.10;;;2.40;90.80;;;1.89;84.39;96436.66;5057547;28;20642;-70
2021/01/25 04:17:24;;;;;;;8.50;6.13;;;2.40;90.90;;;1.88;84.51;96433.28;5063284;28;20620;-70
2021/01/25 04:19:52;;;;;;;11.93;6.20;;;2.40;91.00;;;1.88;85.04;96427.31;5054943;28;20639;-70
2021/01/25 04:22:20;;;;;;;7.47;6.10;;;2.40;91.00;;;1.95;84.65;96436.28;5053120;28;21192;-70
2021/01/25 04:24:48;;;;;;;7.33;5.60;;;2.40;91.00;;;1.92;84.66;96428.75;5053179;28;20652;-70
2021/01/25 04:27:16;;;;;;;7.20;5.87;;;2.40;91.00;;;1.91;84.67;96427.13;5057463;28;20663;-70
2021/01/25 04:29:44;;;;;;;8.40;6.40;;;2.40;91.20;;;1.90;84.67;96426.28;5058536;28;21164;-70
2021/01/25 04:32:11;;;;;;;10.95;6.97;;;2.40;91.10;;;1.94;85.02;96429.50;5063236;28;20785;-70
2021/01/25 04:34:39;;;;;;;9.30;6.20;;;2.50;91.30;;;1.99;85.13;96428.28;5063959;28;20730;-68
2021/01/25 04:37:07;;;;;;;9.07;6.60;;;2.50;91.30;;;2.02;84.67;96425.53;5060135;28;20632;-69
2021/01/25 04:39:36;;;;;;;9.03;6.20;;;2.50;91.00;;;2.02;84.61;96425.53;5061967;28;20624;-69
2021/01/25 04:42:07;;;;;;;8.27;5.27;;;2.50;91.20;;;2.03;84.98;96429.75;5053283;28;20993;-69
2021/01/25 04:44:35;;;;;;;9.00;5.50;;;2.50;91.20;;;2.03;84.97;96429.75;5063431;28;20752;-69
2021/01/25 04:47:05;;;;;;;9.07;5.47;;;2.50;91.20;;;2.09;85.11;96423.41;5069590;28;20639;-69
2021/01/25 04:49:35;;;;;;;6.20;4.90;;;2.60;91.30;;;2.13;85.14;96422.31;5055375;28;20743;-69
2021/01/25 04:52:03;;;;;;;6.87;5.30;;;2.60;91.30;;;2.16;85.05;96427.25;5057383;28;20714;-69
2021/01/25 04:54:30;;;;;;;6.20;5.33;;;2.70;91.50;;;2.16;85.18;96429.81;5069177;28;20661;-70
2021/01/25 04:56:59;;;;;;;10.60;6.00;;;2.70;91.40;;;2.18;84.91;96430.53;5066442;28;20639;-70
2021/01/25 04:59:28;;;;;;;6.57;5.37;;;2.70;91.40;;;2.11;85.39;96427.53;5062024;28;20655;-70
2021/01/25 05:01:56;;;;;;;7.33;5.47;;;2.70;91.40;;;2.10;85.17;96430.19;5057389;28;21084;-70
2021/01/25 05:04:24;;;;;;;10.17;5.20;;;2.60;91.40;;;2.10;85.06;96427.63;5059548;28;20648;-70
2021/01/25 05:06:52;;;;;;;7.80;5.23;;;2.60;91.50;;;2.12;85.82;96429.19;5060719;28;20635;-70
2021/01/25 05:09:19;;;;;;;6.80;5.20;;;2.70;91.70;;;2.13;85.14;96440.28;5061423;28;20671;-70
2021/01/25 05:11:57;;;;;;;7.00;5.30;;;2.60;91.60;;;2.13;85.58;96430.00;5070101;28;20638;-70
2021/01/25 05:14:25;;;;;;;6.73;5.43;;;2.70;91.70;;;2.15;85.29;96433.31;5057494;28;20628;-70
2021/01/25 05:16:53;;;;;;;7.87;5.10;;;2.70;91.70;;;2.15;85.63;96434.16;5053229;28;20693;-70
2021/01/25 05:19:26;;;;;;;9.07;5.40;;;2.70;91.70;;;2.14;85.50;96434.25;5054429;28;20644;-70
2021/01/25 05:21:54;;;;;;;6.97;5.07;;;2.70;91.70;;;2.17;85.64;96427.16;5070553;28;20726;-70
2021/01/25 05:24:21;;;;;;;6.33;5.70;;;2.70;91.70;;;2.18;85.92;96427.97;5061181;28;21180;-70
2021/01/25 05:26:53;;;;;;;5.30;4.40;;;2.70;91.80;;;2.19;85.52;96429.63;5057003;28;20695;-70
2021/01/25 05:29:24;;;;;;;6.20;4.67;;;2.70;91.80;;;2.22;85.95;96429.44;5059966;28;22003;-70
2021/01/25 05:31:52;;;;;;;7.90;5.47;;;2.70;91.90;;;2.24;85.64;96436.16;5059108;28;21219;-70
2021/01/25 05:34:21;;;;;;;7.17;5.10;;;2.80;92.30;;;2.26;85.51;96428.34;5067794;28;20634;-70
2021/01/25 05:36:50;;;;;;;7.07;5.43;;;2.80;91.80;;;2.18;85.44;96430.53;5066776;28;21298;-70
2021/01/25 05:39:19;;;;;;;5.87;5.20;;;2.70;91.80;;;2.19;85.62;96432.19;5063536;28;20717;-70
2021/01/25 05:41:53;;;;;;;9.30;5.40;;;2.70;91.80;;;2.17;85.59;96431.47;5071402;28;21055;-70
2021/01/25 05:44:22;;;;;;;6.83;6.03;;;2.70;91.80;;;2.18;85.93;96435.69;5065785;28;20634;-70
2021/01/25 05:46:50;;;;;;;6.60;5.20;;;2.70;91.90;;;2.19;86.19;96432.19;5067136;28;20646;-70
2021/01/25 05:49:26;;;;;;;7.27;5.90;;;2.70;92.00;;;2.16;85.82;96429.81;5057778;28;20723;-70
2021/01/25 05:51:55;;;;;;;7.77;5.50;;;2.70;91.80;;;2.16;85.95;96437.53;5055410;28;20604;-70
2021/01/25 05:54:23;;;;;;;7.10;5.20;;;2.60;91.90;;;2.16;86.04;96440.09;5072764;28;21052;-70
2021/01/25 05:56:51;;;;;;;10.40;5.60;;;2.70;91.90;;;2.09;85.69;96433.69;5066071;28;20639;-70
2021/01/25 05:59:18;;;;;;;7.00;5.47;;;2.60;92.00;;;2.10;86.13;96441.28;5071722;28;20738;-70
2021/01/25 06:01:48;;;;;;;8.10;5.70;;;2.60;92.10;;;2.11;86.14;96442.16;5054635;28;20653;-70
2021/01/25 06:04:19;;;;;;;8.00;6.03;;;2.60;92.20;;;2.15;85.96;96443.59;5058880;28;20670;-70
2021/01/25 06:06:59;;;;;;;10.30;5.50;;;2.60;92.30;;;2.16;86.34;96438.34;5069499;28;20694;-70
2021/01/25 06:09:35;;;;;;;6.57;5.90;;;2.70;92.30;;;2.16;86.20;96445.25;5054857;28;20750;-70
2021/01/25 06:12:06;;;;;;;8.50;6.37;;;2.70;92.50;;;2.19;86.89;96445.06;5069467;28;20639;-70
2021/01/25 06:14:39;;;;;;;7.33;5.80;;;2.70;92.60;;;2.22;86.54;96444.88;5059665;28;20612;-70
2021/01/25 06:17:09;;;;;;;5.47;4.93;;;2.70;92.20;;;2.27;86.37;96445.41;5060504;28;20672;-70
2021/01/25 06:19:39;;;;;;;8.37;5.97;;;2.80;92.40;;;2.24;86.09;96453.31;5065181;28;21096;-70
2021/01/25 06:22:08;;;;;;;8.60;5.63;;;2.70;92.10;;;2.22;86.02;96447.44;5066772;28;21244;-70
2021/01/25 06:24:37;;;;;;;7.50;5.50;;;2.70;92.10;;;2.23;85.94;96446.53;5064174;28;21252;-70
2021/01/25 06:27:05;;;;;;;9.73;6.13;;;2.70;92.20;;;2.21;86.12;96453.50;5065898;28;21155;-68
2021/01/25 06:29:33;;;;;;;10.00;6.10;;;2.70;92.10;;;2.23;86.42;96456.81;5066457;28;20735;-68
2021/01/25 06:32:02;;;;;;;7.80;5.83;;;2.70;92.40;;;2.25;86.20;96462.66;5061130;28;20612;-68
2021/01/25 06:34:29;;;;;;;7.60;5.50;;;2.80;92.40;;;2.27;86.25;96459.09;5068190;28;20726;-68
2021/01/25 06:36:57;;;;;;;8.63;5.57;;;2.80;92.40;;;2.30;86.12;96456.34;5065243;28;20693;-67
2021/01/25 06:39:27;;;;;;;9.03;5.83;;;2.80;92.30;;;2.30;86.01;96460.63;5063601;28;20641;-67
2021/01/25 06:42:03;;;;;;;8.43;6.10;;;2.80;92.10;;;2.26;85.96;96459.19;5058657;28;20640;-67
2021/01/25 06:44:33;;;;;;;7.60;5.93;;;2.80;92.10;;;2.24;85.88;96461.84;5061329;28;21018;-67
2021/01/25 06:47:04;;;;;;;9.00;6.03;;;2.70;92.20;;;2.27;86.01;96460.81;5057258;28;20657;-67
2021/01/25 06:49:33;;;;;;;8.63;6.50;;;2.80;92.10;;;2.30;86.17;96469.19;5072074;28;20639;-67
2021/01/25 06:52:00;;;;;;;7.97;6.30;;;2.80;92.40;;;2.32;86.40;96469.09;5055576;28;20636;-67
2021/01/25 06:54:29;;;;;;;9.67;5.73;;;2.80;92.40;;;2.34;86.37;96471.44;5065823;28;21245;-67
2021/01/25 06:56:59;;;;;;;9.40;6.10;;;2.90;92.30;;;2.35;86.19;96474.88;5064062;28;20627;-67
2021/01/25 06:59:30;;;;;;;9.33;6.13;;;2.90;92.40;;;2.36;86.26;96490.19;5055068;28;20620;-67
2021/01/25 07:01:58;;;;;;;8.70;6.07;;;2.90;92.40;;;2.33;86.01;96484.44;5058805;28;20639;-67
2021/01/25 07:04:30;;;;;;;8.07;5.90;;;2.90;92.20;;;2.36;86.22;96487.63;5066030;28;20719;-69
2021/01/25 07:07:00;;;;;;;10.60;6.30;;;2.90;92.30;;;2.40;86.11;96491.63;5071966;28;20983;-68
2021/01/25 07:09:30;;;;;;;10.23;6.57;;;2.90;91.90;;;2.43;85.97;96496.59;5057389;28;20616;-67
2021/01/25 07:11:59;;;;;;;10.30;6.23;;;2.90;92.60;;;2.43;85.78;96499.16;5054336;28;20682;-67
2021/01/25 07:14:30;;;;;;;10.60;6.60;;;2.90;92.10;;;2.46;85.93;96508.44;5054239;28;21751;-67
2021/01/25 07:16:59;;;;;;;8.03;6.57;;;2.90;92.20;;;2.47;86.14;96510.09;5063778;28;20699;-67
2021/01/25 07:19:28;;;;;;;9.93;6.53;;;3.00;92.20;;;2.49;86.09;96509.06;5058115;28;20628;-67
2021/01/25 07:21:56;;;;;;;9.10;6.13;;;3.00;92.30;;;2.55;85.77;96511.25;5067353;28;20653;-67
2021/01/25 07:24:26;;;;;;;10.10;7.13;;;3.00;92.20;;;2.58;86.18;96516.22;5058995;28;20685;-67
2021/01/25 07:26:59;;;;;;;9.43;6.60;;;3.00;92.20;;;2.61;86.09;96528.88;5063569;28;20654;-69
2021/01/25 07:29:28;;;;;;;11.20;7.50;;;3.10;92.50;;;2.66;85.95;96534.59;5061995;28;20616;-68
2021/01/25 07:31:58;;;;;;;13.30;7.33;;;3.10;92.10;;;2.72;86.02;96529.06;5054732;28;20628;-68
2021/01/25 07:34:30;;;;;;;12.43;6.70;;;3.20;92.20;;;2.76;85.38;96537.41;5065131;28;20624;-67
2021/01/25 07:36:57;;;;;;;11.60;6.87;;;3.20;92.00;;;2.78;85.15;96543.28;5057532;28;20632;-67
2021/01/25 07:39:25;;;;;;;8.90;6.30;;;3.20;91.90;;;2.72;85.05;96544.50;5060753;28;20655;-67
2021/01/25 07:41:53;;;;;;;12.20;6.50;;;3.20;91.70;;;2.76;84.81;96551.09;5058386;28;20730;-67
2021/01/25 07:44:22;;;;;;;10.40;6.70;;;3.20;91.60;;;2.78;85.12;96554.38;5060054;28;20678;-67
2021/01/25 07:46:50;;;;;;;10.60;7.67;;;3.20;91.80;;;2.84;85.31;96559.16;5054143;28;21074;-67
2021/01/25 07:49:27;;;;;;;10.37;6.83;;;3.30;92.10;;;2.90;85.14;96559.59;5060788;28;20644;-67
2021/01/25 07:51:54;;;;;;;30.17;17.63;;;3.30;91.80;;;2.94;85.31;96557.66;5066746;28;20647;-67
2021/01/25 07:54:23;;;;;;;18.63;12.27;;;3.30;91.50;;;3.00;84.10;96557.28;5062594;28;20631;-68
2021/01/25 07:56:53;;;;;;;15.80;10.07;;;3.40;91.60;;;3.04;84.68;96566.47;5063692;28;20676;-69
2021/01/25 07:59:23;;;;;;;13.07;9.47;;;3.40;91.30;;;3.10;84.28;96560.94;5061407;28;20639;-69
2021/01/25 08:01:56;;;;;;;11.33;7.67;;;3.50;91.40;;;3.16;84.22;96570.81;5062913;28;20691;-71
2021/01/25 08:04:27;;;;;;;13.07;7.47;;;3.60;91.30;;;3.22;84.16;96568.69;5066185;28;20631;-71
2021/01/25 08:06:59;;;;;;;13.23;8.30;;;3.60;91.20;;;3.25;84.07;96575.38;5064110;28;20626;-70
2021/01/25 08:09:28;;;;;;;11.10;7.17;;;3.70;91.10;;;3.27;84.22;96576.94;5058597;28;20641;-73
2021/01/25 08:11:57;;;;;;;17.23;8.67;;;3.70;91.10;;;3.30;84.24;96574.16;5057654;28;21168;-72
2021/01/25 08:14:42;;;;;;;10.07;7.73;;;3.70;90.90;;;3.28;84.28;96579.41;5053483;28;20672;-74
2021/01/25 08:17:15;;;;;;;12.10;9.20;;;3.70;90.80;;;3.26;84.53;96582.19;5052722;28;20642;-74
2021/01/25 08:19:47;;;;;;;18.70;13.37;;;3.70;90.90;;;3.27;84.31;96578.69;5052733;28;20624;-72
2021/01/25 08:22:20;;;;;;;22.50;12.50;;;3.70;91.10;;;3.31;84.41;96591.28;5042897;28;21222;-72
2021/01/25 08:24:54;;;;;;;35.00;18.33;;;3.70;91.10;;;3.33;84.45;96589.41;5055981;28;21113;-74
2021/01/25 08:27:23;;;;;;;21.33;11.00;;;3.80;91.20;;;3.36;85.02;96594.38;5054054;28;20655;-74
2021/01/25 08:30:01;;;;;;;16.50;8.93;;;3.80;91.10;;;3.41;84.42;96597.47;5063763;28;20612;-73
2021/01/25 08:32:40;;;;;;;15.20;10.47;;;3.90;91.10;;;3.48;84.39;96604.72;5062398;28;20631;-72
2021/01/25 08:35:36;;;;;;;12.37;8.13;;;3.90;91.10;;;3.50;84.70;96602.03;5060761;28;20722;-72
2021/01/25 08:38:27;;;;;;;8.17;7.07;;;3.90;91.00;;;3.54;84.67;96600.91;5069935;28;20630;-72
2021/01/25 08:40:58;;;;;;;20.17;12.50;;;4.00;91.30;;;3.63;83.42;96606.28;5055475;28;20643;-71
2021/01/25 08:43:28;;;;;;;11.83;8.47;;;4.00;90.70;;;3.65;83.00;96616.50;5057023;28;20625;-71
2021/01/25 08:46:10;;;;;;;10.30;7.30;;;4.00;90.50;;;3.63;83.09;96621.75;5056955;28;20644;-71
2021/01/25 08:48:38;;;;;;;14.63;9.83;;;4.00;90.60;;;3.68;83.73;96618.88;5051921;28;20711;-74
2021/01/25 08:51:11;;;;;;;12.87;10.13;;;4.00;90.80;;;3.66;83.79;96621.56;5060964;28;20640;-71
2021/01/25 08:53:40;;;;;;;14.77;10.17;;;4.00;90.80;;;3.63;83.87;96619.19;5054828;28;20624;-71
2021/01/25 08:56:18;;;;;;;16.53;10.13;;;4.00;90.80;;;3.59;83.38;96620.28;5054111;28;20621;-71
2021/01/25 08:58:46;;;;;;;17.50;11.70;;;4.00;90.90;;;3.56;84.63;96615.34;5052728;28;21232;-71
2021/01/25 09:01:18;;;;;;;16.33;10.53;;;4.00;91.00;;;3.57;84.24;96617.00;5054091;28;20730;-73
2021/01/25 09:03:47;;;;;;;12.60;9.40;;;4.00;91.00;;;3.57;84.90;96624.72;5055963;28;20644;-73
2021/01/25 09:06:15;;;;;;;13.40;8.77;;;4.00;91.10;;;3.58;84.46;96630.69;5060799;28;20656;-72
2021/01/25 09:08:42;;;;;;;13.00;8.90;;;4.00;91.10;;;3.63;84.11;96642.38;5052672;28;20623;-73
2021/01/25 09:11:11;;;;;;;9.80;7.70;;;4.10;91.20;;;3.67;84.84;96643.84;5051849;28;20735;-71
2021/01/25 09:13:38;;;;;;;20.93;13.23;;;4.10;91.20;;;3.72;84.86;96649.50;5051598;28;20636;-71
2021/01/25 09:16:06;;;;;;;12.00;8.33;;;4.10;91.10;;;3.78;84.57;96651.69;5068434;28;21155;-71
2021/01/25 09:18:34;;;;;;;10.33;7.30;;;4.20;91.20;;;3.79;84.36;96650.78;5055053;28;21141;-70
2021/01/25 09:21:03;;;;;;;10.77;8.20;;;4.20;91.20;;;3.84;84.93;96656.47;5068603;28;20623;-71
2021/01/25 09:23:30;;;;;;;13.43;10.00;;;4.30;91.30;;;3.91;84.23;96655.13;5052276;28;20613;-70
2021/01/25 09:25:58;;;;;;;16.17;11.47;;;4.30;91.30;;;3.92;84.76;96657.59;5057839;28;20710;-72
2021/01/25 09:28:26;;;;;;;10.80;9.53;;;4.40;91.40;;;3.95;85.37;96662.53;5051473;28;20972;-72
2021/01/25 09:30:53;;;;;;;15.70;8.87;;;4.40;91.40;;;4.00;84.69;96665.69;5052573;28;20653;-69
2021/01/25 09:33:21;;;;;;;11.70;7.97;;;4.40;91.40;;;4.04;84.86;96672.25;5052501;28;20632;-69
2021/01/25 09:35:50;;;;;;;14.93;10.50;;;4.40;91.20;;;4.11;83.94;96677.88;5051842;28;20612;-69
2021/01/25 09:38:17;;;;;;;13.17;9.47;;;4.50;91.20;;;4.18;83.44;96676.50;5060394;28;20776;-71
2021/01/25 09:40:45;;;;;;;9.40;8.00;;;4.60;91.20;;;4.26;83.56;96686.22;5058307;28;20638;-70
2021/01/25 09:43:13;;;;;;;13.07;9.37;;;4.60;91.10;;;4.32;83.18;96687.59;5068876;28;20721;-72
2021/01/25 09:45:41;;;;;;;10.80;8.60;;;4.70;91.10;;;4.40;82.80;96686.13;5069518;28;20651;-73
2021/01/25 09:48:09;;;;;;;10.20;8.20;;;4.80;90.90;;;4.49;83.56;96700.19;5061319;28;20624;-71
2021/01/25 09:50:36;;;;;;;11.47;8.03;;;4.80;90.70;;;4.59;82.34;96698.66;5063372;28;20623;-66
2021/01/25 09:53:05;;;;;;;10.50;8.27;;;4.90;90.60;;;4.66;82.24;96694.72;5067249;28;20623;-67
2021/01/25 09:55:33;;;;;;;10.67;8.37;;;5.00;90.40;;;4.69;82.75;96698.75;5069346;28;20631;-67
2021/01/25 09:58:02;;;;;;;11.33;8.60;;;5.00;90.20;;;4.74;82.72;96707.00;5056340;28;20625;-67
2021/01/25 10:00:29;;;;;;;10.90;9.20;;;5.10;90.30;;;4.81;83.19;96704.81;5053324;28;20624;-67
2021/01/25 10:02:57;;;;;;;11.10;8.67;;;5.10;90.20;;;4.91;82.57;96717.00;5058396;28;20671;-67
2021/01/25 10:05:25;;;;;;;11.97;10.13;;;5.20;90.20;;;5.10;81.78;96706.22;5059110;28;20691;-67
2021/01/25 10:07:52;;;;;;;10.73;8.87;;;5.30;90.20;;;5.26;82.10;96718.84;5054496;28;21191;-67
2021/01/25 10:10:24;;;;;;;11.90;9.43;;;5.50;90.00;;;5.41;80.47;96729.84;5055924;28;21167;-67
2021/01/25 10:12:52;;;;;;;13.83;11.83;;;5.60;89.30;;;5.49;80.62;96724.94;5070114;28;20623;-67
2021/01/25 10:15:20;;;;;;;16.83;12.33;;;5.70;88.80;;;5.48;80.47;96728.50;5063918;28;21158;-66
2021/01/25 10:17:51;;;;;;;16.10;11.10;;;5.70;87.40;;;5.42;79.61;96724.56;5054389;28;20640;-66
2021/01/25 10:20:19;;;;;;;12.10;9.20;;;5.70;87.70;;;5.39;79.96;96732.53;5060202;28;20632;-66
2021/01/25 10:22:47;;;;;;;12.33;10.00;;;5.70;87.30;;;5.33;80.12;96732.97;5063688;28;20624;-66
2021/01/25 10:25:15;;;;;;;13.43;9.70;;;5.70;87.10;;;5.24;79.80;96733.59;5058252;28;20679;-66
2021/01/25 10:27:43;;;;;;;16.03;11.60;;;5.60;87.00;;;5.16;80.23;96730.72;5067632;28;20664;-66
2021/01/25 10:30:14;;;;;;;16.70;11.83;;;5.60;87.00;;;5.13;80.08;96744.78;5061929;28;20710;-66
2021/01/25 10:32:42;;;;;;;14.13;11.67;;;5.50;87.00;;;5.08;80.96;96737.34;5062864;28;21302;-66
2021/01/25 10:35:12;;;;;;;15.83;11.73;;;5.50;87.40;;;5.04;81.15;96741.06;5056587;28;20644;-66
2021/01/25 10:37:42;;;;;;;18.13;13.47;;;5.40;87.40;;;4.99;81.03;96752.63;5064991;28;20726;-66